createdAt,value
2022-12-27T00:00:30.753Z,100.00
2022-12-27T00:01:19.864Z,100.00
2022-12-27T00:02:06.781Z,100.00
2022-12-27T00:02:53.724Z,100.00
2022-12-27T00:03:41.899Z,100.00
2022-12-27T00:04:28.969Z,100.00
2022-12-27T00:05:15.984Z,100.00
2022-12-27T00:06:07.457Z,100.00
2022-12-27T00:06:54.298Z,100.00
2022-12-27T00:07:41.431Z,100.00
2022-12-27T00:08:28.278Z,100.00
2022-12-27T00:09:15.129Z,100.00
2022-12-27T00:10:02.242Z,100.00
2022-12-27T00:10:49.110Z,100.00
2022-12-27T00:11:36.401Z,100.00
2022-12-27T00:12:23.280Z,100.00
2022-12-27T00:13:10.120Z,100.00
2022-12-27T00:14:00.125Z,100.00
2022-12-27T00:14:47.007Z,100.00
2022-12-27T00:15:35.008Z,100.00
2022-12-27T00:16:21.966Z,100.00
2022-12-27T00:17:08.899Z,100.00
2022-12-27T00:17:56.025Z,100.00
2022-12-27T00:18:43.748Z,100.00
2022-12-27T00:19:30.657Z,100.00
2022-12-27T00:20:17.560Z,100.00
2022-12-27T00:21:06.406Z,100.00
2022-12-27T00:21:53.296Z,100.00
2022-12-27T00:22:41.142Z,100.00
2022-12-27T00:23:28.326Z,100.00
2022-12-27T00:24:15.228Z,100.00
2022-12-27T00:25:02.347Z,100.00
2022-12-27T00:25:49.299Z,100.00
2022-12-27T00:26:36.406Z,100.00
2022-12-27T00:27:23.248Z,100.00
2022-12-27T00:28:10.188Z,100.00
2022-12-27T00:28:57.279Z,100.00
2022-12-27T00:29:44.100Z,100.00
2022-12-27T00:30:32.441Z,100.00
2022-12-27T00:31:21.627Z,100.00
2022-12-27T00:32:08.591Z,100.00
2022-12-27T00:32:55.498Z,100.00
2022-12-27T00:33:43.875Z,100.00
2022-12-27T00:34:30.799Z,100.00
2022-12-27T00:35:17.699Z,100.00
2022-12-27T00:36:06.254Z,100.00
2022-12-27T00:36:53.125Z,100.00
2022-12-27T00:37:39.982Z,100.00
2022-12-27T00:38:27.019Z,100.00
2022-12-27T00:39:14.033Z,100.00
2022-12-27T00:40:00.848Z,100.00
2022-12-27T00:40:48.445Z,100.00
2022-12-27T00:41:35.368Z,100.00
2022-12-27T00:42:22.281Z,100.00
2022-12-27T00:43:09.110Z,100.00
2022-12-27T00:43:56.198Z,100.00
2022-12-27T00:44:43.717Z,100.00
2022-12-27T00:45:30.600Z,100.00
2022-12-27T00:46:17.860Z,100.00
2022-12-27T00:47:04.896Z,100.00
2022-12-27T00:47:52.173Z,100.00
2022-12-27T00:48:39.391Z,100.00
2022-12-27T00:49:26.326Z,100.00
2022-12-27T00:50:13.320Z,100.00
2022-12-27T00:51:03.614Z,100.00
2022-12-27T00:51:50.904Z,100.00
2022-12-27T00:52:37.763Z,100.00
2022-12-27T00:53:24.683Z,100.00
2022-12-27T00:54:11.569Z,100.00
2022-12-27T00:54:58.509Z,100.00
2022-12-27T00:55:45.590Z,100.00
2022-12-27T00:56:32.464Z,100.00
2022-12-27T00:57:19.302Z,100.00
2022-12-27T00:58:06.200Z,100.00
2022-12-27T00:58:54.802Z,100.00
2022-12-27T00:59:41.650Z,100.00
2022-12-27T01:00:28.636Z,100.00
2022-12-27T01:01:18.516Z,100.00
2022-12-27T01:02:05.546Z,100.00
2022-12-27T01:02:52.421Z,100.00
2022-12-27T01:03:39.433Z,100.00
2022-12-27T01:04:26.382Z,100.00
2022-12-27T01:05:13.190Z,100.00
2022-12-27T01:06:07.656Z,100.00
2022-12-27T01:06:54.682Z,100.00
2022-12-27T01:07:41.621Z,100.00
2022-12-27T01:08:30.333Z,100.00
2022-12-27T01:09:17.202Z,100.00
2022-12-27T01:10:04.539Z,100.00
2022-12-27T01:10:51.442Z,100.00
2022-12-27T01:11:40.703Z,100.00
2022-12-27T01:12:27.673Z,100.00
2022-12-27T01:13:14.644Z,100.00
2022-12-27T01:14:04.144Z,100.00
2022-12-27T01:14:51.089Z,100.00
2022-12-27T01:15:41.979Z,100.00
2022-12-27T01:16:30.135Z,100.00
2022-12-27T01:17:17.087Z,100.00
2022-12-27T01:18:04.051Z,100.00
2022-12-27T01:18:50.963Z,100.00
2022-12-27T01:19:38.748Z,100.00
2022-12-27T01:20:25.631Z,100.00
2022-12-27T01:21:14.086Z,100.00
2022-12-27T01:22:00.938Z,100.00
2022-12-27T01:22:47.881Z,100.00
2022-12-27T01:23:35.797Z,100.00
2022-12-27T01:24:22.854Z,100.00
2022-12-27T01:25:09.811Z,100.00
2022-12-27T01:26:04.822Z,100.00
2022-12-27T01:26:51.668Z,100.00
2022-12-27T01:27:38.543Z,100.00
2022-12-27T01:28:25.374Z,100.00
2022-12-27T01:29:13.371Z,100.00
2022-12-27T01:30:00.370Z,100.00
2022-12-27T01:30:47.372Z,100.00
2022-12-27T01:31:34.320Z,100.00
2022-12-27T01:32:21.504Z,100.00
2022-12-27T01:33:08.413Z,100.00
2022-12-27T01:33:57.422Z,100.00
2022-12-27T01:34:44.293Z,100.00
2022-12-27T01:35:31.148Z,100.00
2022-12-27T01:36:22.429Z,100.00
2022-12-27T01:37:09.279Z,100.00
2022-12-27T01:37:56.162Z,100.00
2022-12-27T01:38:43.595Z,100.00
2022-12-27T01:39:30.431Z,100.00
2022-12-27T01:40:17.341Z,100.00
2022-12-27T01:41:24.252Z,100.00
2022-12-27T01:42:35.658Z,100.00
2022-12-27T01:43:38.087Z,100.00
2022-12-27T01:44:40.052Z,100.00
2022-12-27T01:45:34.875Z,100.00
2022-12-27T01:46:21.799Z,100.00
2022-12-27T01:47:33.638Z,100.00
2022-12-27T01:48:22.993Z,100.00
2022-12-27T01:49:11.811Z,100.00
2022-12-27T01:50:17.583Z,100.00
2022-12-27T01:51:05.967Z,100.00
2022-12-27T01:51:52.827Z,100.00
2022-12-27T01:52:47.394Z,100.00
2022-12-27T01:53:37.991Z,100.00
2022-12-27T01:54:24.955Z,100.00
2022-12-27T01:55:27.703Z,100.00
2022-12-27T01:56:28.650Z,100.00
2022-12-27T01:57:15.724Z,100.00
2022-12-27T01:58:15.479Z,100.00
2022-12-27T01:59:08.690Z,100.00
2022-12-27T01:59:55.676Z,100.00
2022-12-27T02:00:45.334Z,100.00
2022-12-27T02:01:39.091Z,100.00
2022-12-27T02:02:26.130Z,100.00
2022-12-27T02:03:25.792Z,100.00
2022-12-27T02:04:19.005Z,100.00
2022-12-27T02:05:06.940Z,100.00
2022-12-27T02:05:54.022Z,100.00
2022-12-27T02:06:41.255Z,100.00
2022-12-27T02:07:35.366Z,99.98
2022-12-27T02:08:32.935Z,99.46
2022-12-27T02:09:44.312Z,99.35
2022-12-27T02:10:32.101Z,99.57
2022-12-27T02:11:42.393Z,99.11
2022-12-27T02:12:29.311Z,99.01
2022-12-27T02:13:16.754Z,98.80
2022-12-27T02:14:03.683Z,98.65
2022-12-27T02:14:52.741Z,98.41
2022-12-27T02:15:39.582Z,97.85
2022-12-27T02:16:26.462Z,97.79
2022-12-27T02:17:27.701Z,98.33
2022-12-27T02:18:14.723Z,99.32
2022-12-27T02:19:01.577Z,100.00
2022-12-27T02:19:57.832Z,100.00
2022-12-27T02:20:59.574Z,100.00
2022-12-27T02:22:05.199Z,100.00
2022-12-27T02:23:32.227Z,99.67
2022-12-27T02:24:46.491Z,99.56
2022-12-27T02:25:48.415Z,99.53
2022-12-27T02:26:56.733Z,99.79
2022-12-27T02:28:24.491Z,99.98
2022-12-27T02:29:53.677Z,99.16
2022-12-27T02:30:41.393Z,99.36
2022-12-27T02:31:51.191Z,99.29
2022-12-27T02:32:41.086Z,98.94
2022-12-27T02:33:30.424Z,99.41
2022-12-27T02:34:26.712Z,98.44
2022-12-27T02:35:33.462Z,97.90
2022-12-27T02:36:26.851Z,99.32
2022-12-27T02:37:14.531Z,99.55
2022-12-27T02:38:12.969Z,99.47
2022-12-27T02:39:01.607Z,99.67
2022-12-27T02:39:50.332Z,99.50
2022-12-27T02:41:01.329Z,98.91
2022-12-27T02:42:06.923Z,98.40
2022-12-27T02:43:12.473Z,98.74
2022-12-27T02:44:17.863Z,98.45
2022-12-27T02:45:32.762Z,98.70
2022-12-27T02:46:41.543Z,100.00
2022-12-27T02:47:47.125Z,100.00
2022-12-27T02:48:52.572Z,99.72
2022-12-27T02:50:00.820Z,99.32
2022-12-27T02:51:38.702Z,98.95
2022-12-27T02:53:05.472Z,99.12
2022-12-27T02:54:17.014Z,99.40
2022-12-27T02:55:03.843Z,99.41
2022-12-27T02:56:27.810Z,99.21
2022-12-27T02:57:26.725Z,98.47
2022-12-27T02:58:31.559Z,98.22
2022-12-27T03:00:20.142Z,98.09
2022-12-27T03:01:50.253Z,98.11
2022-12-27T03:03:23.442Z,97.19
2022-12-27T03:04:37.166Z,97.43
2022-12-27T03:05:29.943Z,97.85
2022-12-27T03:06:40.235Z,97.88
2022-12-27T03:08:04.613Z,97.57
2022-12-27T03:09:03.308Z,98.70
2022-12-27T03:10:16.694Z,98.58
2022-12-27T03:11:22.240Z,98.21
2022-12-27T03:12:36.846Z,97.45
2022-12-27T03:14:03.481Z,96.83
2022-12-27T03:15:09.066Z,96.89
2022-12-27T03:16:06.334Z,97.42
2022-12-27T03:16:57.727Z,96.65
2022-12-27T03:17:51.147Z,96.25
2022-12-27T03:18:37.951Z,96.90
2022-12-27T03:19:46.412Z,96.88
2022-12-27T03:20:52.522Z,97.39
2022-12-27T03:22:05.229Z,96.67
2022-12-27T03:23:12.068Z,96.82
2022-12-27T03:24:18.637Z,97.09
2022-12-27T03:25:24.681Z,96.94
2022-12-27T03:26:14.021Z,96.65
2022-12-27T03:27:01.890Z,96.33
2022-12-27T03:28:09.156Z,95.97
2022-12-27T03:29:16.636Z,96.43
2022-12-27T03:30:25.664Z,96.59
2022-12-27T03:31:43.344Z,97.20
2022-12-27T03:33:08.797Z,97.24
2022-12-27T03:34:04.793Z,97.15
2022-12-27T03:34:55.291Z,97.12
2022-12-27T03:36:07.422Z,97.06
2022-12-27T03:37:14.202Z,97.77
2022-12-27T03:38:04.049Z,97.42
2022-12-27T03:39:13.863Z,98.10
2022-12-27T03:40:05.915Z,97.88
2022-12-27T03:41:16.044Z,97.96
2022-12-27T03:42:27.744Z,97.47
2022-12-27T03:43:16.240Z,98.40
2022-12-27T03:44:23.158Z,98.28
2022-12-27T03:45:10.300Z,98.24
2022-12-27T03:46:36.018Z,98.39
2022-12-27T03:47:51.721Z,98.38
2022-12-27T03:48:46.581Z,98.75
2022-12-27T03:49:44.733Z,99.54
2022-12-27T03:50:36.761Z,100.00
2022-12-27T03:51:26.013Z,99.92
2022-12-27T03:52:26.781Z,99.90
2022-12-27T03:53:21.628Z,99.93
2022-12-27T03:54:19.527Z,98.87
2022-12-27T03:55:06.711Z,98.79
2022-12-27T03:55:53.828Z,98.79
2022-12-27T03:56:42.736Z,99.04
2022-12-27T03:57:29.697Z,99.53
2022-12-27T03:58:16.740Z,99.63
2022-12-27T03:59:05.551Z,100.00
2022-12-27T03:59:52.732Z,100.00
2022-12-27T04:00:39.970Z,99.39
2022-12-27T04:01:26.891Z,99.57
2022-12-27T04:02:14.278Z,99.80
2022-12-27T04:03:01.333Z,99.49
2022-12-27T04:03:48.241Z,99.76
2022-12-27T04:04:35.264Z,100.00
2022-12-27T04:05:22.135Z,100.00
2022-12-27T04:06:09.312Z,100.00
2022-12-27T04:06:56.219Z,100.00
2022-12-27T04:08:01.604Z,100.00
2022-12-27T04:09:07.275Z,100.00
2022-12-27T04:10:12.787Z,100.00
2022-12-27T04:11:18.472Z,100.00
2022-12-27T04:12:24.161Z,100.00
2022-12-27T04:13:29.886Z,100.00
2022-12-27T04:14:35.559Z,100.00
2022-12-27T04:15:41.155Z,100.00
2022-12-27T04:16:46.794Z,100.00
2022-12-27T04:17:52.440Z,100.00
2022-12-27T04:18:58.091Z,100.00
2022-12-27T04:20:03.735Z,100.00
2022-12-27T04:21:09.274Z,100.00
2022-12-27T04:22:14.991Z,100.00
2022-12-27T04:23:20.702Z,100.00
2022-12-27T04:24:26.424Z,100.00
2022-12-27T04:25:31.990Z,100.00
2022-12-27T04:26:37.548Z,100.00
2022-12-27T04:27:42.952Z,100.00
2022-12-27T04:28:48.660Z,100.00
2022-12-27T04:29:54.178Z,100.00
2022-12-27T04:30:59.422Z,100.00
2022-12-27T04:32:04.972Z,100.00
2022-12-27T04:33:10.621Z,100.00
2022-12-27T04:34:16.193Z,100.00
2022-12-27T04:35:03.060Z,100.00
2022-12-27T04:35:49.920Z,100.00
2022-12-27T04:36:36.874Z,100.00
2022-12-27T04:37:23.764Z,100.00
2022-12-27T04:38:10.562Z,100.00
2022-12-27T04:38:57.420Z,100.00
2022-12-27T04:40:10.992Z,100.00
2022-12-27T04:41:16.400Z,100.00
2022-12-27T04:42:22.802Z,100.00
2022-12-27T04:43:28.331Z,100.00
2022-12-27T04:44:33.971Z,100.00
2022-12-27T04:45:39.535Z,100.00
2022-12-27T04:46:45.574Z,100.00
2022-12-27T04:47:51.226Z,100.00
2022-12-27T04:48:56.690Z,100.00
2022-12-27T04:50:02.071Z,100.00
2022-12-27T04:51:07.605Z,100.00
2022-12-27T04:52:13.110Z,100.00
2022-12-27T04:53:18.761Z,100.00
2022-12-27T04:54:35.611Z,100.00
2022-12-27T04:55:24.614Z,100.00
2022-12-27T04:56:11.391Z,99.31
2022-12-27T04:56:58.143Z,99.27
2022-12-27T04:57:45.056Z,99.48
2022-12-27T04:58:32.393Z,99.57
2022-12-27T04:59:37.982Z,99.52
2022-12-27T05:00:48.271Z,99.58
2022-12-27T05:01:53.801Z,99.69
2022-12-27T05:02:41.197Z,99.33
2022-12-27T05:03:28.197Z,99.21
2022-12-27T05:04:14.995Z,99.01
2022-12-27T05:05:01.910Z,99.15
2022-12-27T05:05:49.424Z,99.23
2022-12-27T05:06:36.260Z,99.69
2022-12-27T05:07:41.849Z,99.61
2022-12-27T05:08:48.371Z,99.53
2022-12-27T05:09:53.787Z,99.54
2022-12-27T05:10:59.351Z,99.17
2022-12-27T05:12:05.023Z,99.70
2022-12-27T05:13:10.640Z,99.72
2022-12-27T05:14:00.387Z,99.80
2022-12-27T05:14:47.182Z,100.00
2022-12-27T05:15:34.352Z,99.68
2022-12-27T05:16:21.228Z,99.45
2022-12-27T05:17:08.020Z,98.94
2022-12-27T05:17:54.821Z,98.24
2022-12-27T05:18:41.662Z,98.19
2022-12-27T05:19:28.440Z,98.25
2022-12-27T05:20:15.296Z,98.35
2022-12-27T05:21:04.150Z,98.16
2022-12-27T05:22:09.542Z,97.74
2022-12-27T05:23:15.261Z,97.39
2022-12-27T05:24:20.933Z,97.40
2022-12-27T05:25:27.910Z,97.41
2022-12-27T05:26:22.391Z,96.80
2022-12-27T05:27:09.161Z,96.07
2022-12-27T05:27:56.019Z,95.92
2022-12-27T05:28:42.868Z,95.94
2022-12-27T05:29:36.031Z,94.38
2022-12-27T05:30:22.860Z,93.55
2022-12-27T05:31:10.235Z,93.03
2022-12-27T05:31:57.171Z,92.66
2022-12-27T05:32:44.007Z,92.60
2022-12-27T05:33:32.063Z,91.65
2022-12-27T05:34:18.892Z,90.83
2022-12-27T05:35:06.185Z,90.50
2022-12-27T05:35:53.041Z,90.28
2022-12-27T05:36:39.858Z,90.16
2022-12-27T05:37:27.342Z,89.50
2022-12-27T05:38:14.248Z,89.67
2022-12-27T05:39:01.250Z,88.83
2022-12-27T05:39:48.110Z,87.13
2022-12-27T05:40:35.427Z,86.52
2022-12-27T05:41:22.306Z,86.53
2022-12-27T05:42:09.155Z,86.44
2022-12-27T05:42:58.773Z,86.43
2022-12-27T05:43:45.773Z,86.75
2022-12-27T05:44:32.628Z,85.95
2022-12-27T05:45:20.187Z,86.60
2022-12-27T05:46:18.680Z,86.10
2022-12-27T05:47:05.587Z,85.98
2022-12-27T05:47:53.320Z,86.08
2022-12-27T05:48:40.594Z,85.98
2022-12-27T05:49:27.469Z,85.67
2022-12-27T05:50:14.370Z,85.71
2022-12-27T05:51:06.199Z,83.96
2022-12-27T05:51:53.038Z,85.15
2022-12-27T05:52:41.291Z,85.75
2022-12-27T05:53:28.342Z,83.95
2022-12-27T05:54:15.249Z,84.71
2022-12-27T05:55:02.221Z,85.13
2022-12-27T05:55:58.928Z,84.29
2022-12-27T05:56:45.802Z,83.26
2022-12-27T05:57:32.710Z,82.85
2022-12-27T05:58:19.520Z,83.83
2022-12-27T05:59:08.236Z,83.66
2022-12-27T05:59:55.114Z,82.28
2022-12-27T06:00:41.971Z,82.22
2022-12-27T06:01:29.087Z,82.30
2022-12-27T06:02:16.099Z,82.33
2022-12-27T06:03:03.904Z,82.31
2022-12-27T06:03:50.843Z,82.47
2022-12-27T06:04:37.669Z,81.94
2022-12-27T06:05:24.519Z,82.08
2022-12-27T06:06:12.245Z,82.56
2022-12-27T06:06:59.547Z,82.72
2022-12-27T06:07:46.361Z,83.04
2022-12-27T06:08:33.651Z,83.14
2022-12-27T06:09:20.592Z,83.23
2022-12-27T06:10:09.388Z,83.72
2022-12-27T06:11:06.985Z,83.84
2022-12-27T06:11:53.821Z,83.74
2022-12-27T06:12:40.731Z,83.70
2022-12-27T06:13:27.556Z,83.93
2022-12-27T06:14:14.369Z,82.71
2022-12-27T06:15:01.186Z,82.97
2022-12-27T06:15:48.048Z,83.30
2022-12-27T06:16:34.962Z,83.10
2022-12-27T06:17:21.934Z,83.32
2022-12-27T06:18:08.831Z,83.40
2022-12-27T06:18:55.738Z,83.97
2022-12-27T06:19:42.735Z,84.09
2022-12-27T06:20:29.814Z,84.12
2022-12-27T06:21:19.482Z,83.95
2022-12-27T06:22:06.329Z,84.16
2022-12-27T06:22:53.300Z,84.59
2022-12-27T06:23:41.863Z,84.29
2022-12-27T06:24:28.753Z,84.20
2022-12-27T06:25:15.659Z,84.33
2022-12-27T06:26:06.657Z,84.43
2022-12-27T06:26:53.521Z,84.07
2022-12-27T06:27:40.371Z,84.64
2022-12-27T06:28:27.210Z,83.82
2022-12-27T06:29:14.198Z,84.02
2022-12-27T06:30:01.112Z,83.60
2022-12-27T06:30:48.012Z,83.55
2022-12-27T06:31:34.934Z,83.73
2022-12-27T06:32:21.790Z,83.88
2022-12-27T06:33:08.620Z,83.86
2022-12-27T06:33:56.452Z,83.82
2022-12-27T06:34:43.546Z,84.06
2022-12-27T06:35:30.491Z,84.37
2022-12-27T06:36:20.841Z,84.19
2022-12-27T06:37:07.691Z,83.88
2022-12-27T06:37:54.650Z,84.16
2022-12-27T06:38:41.907Z,84.53
2022-12-27T06:39:28.850Z,84.10
2022-12-27T06:40:15.666Z,83.73
2022-12-27T06:41:03.911Z,83.59
2022-12-27T06:41:51.023Z,83.53
2022-12-27T06:42:37.866Z,83.60
2022-12-27T06:43:24.722Z,82.97
2022-12-27T06:44:11.654Z,82.53
2022-12-27T06:44:58.582Z,81.60
2022-12-27T06:45:45.504Z,81.23
2022-12-27T06:46:32.359Z,81.00
2022-12-27T06:47:19.182Z,80.92
2022-12-27T06:48:06.265Z,80.24
2022-12-27T06:48:53.352Z,79.73
2022-12-27T06:49:40.180Z,79.34
2022-12-27T06:50:27.211Z,78.98
2022-12-27T06:51:15.754Z,78.41
2022-12-27T06:52:02.615Z,78.23
2022-12-27T06:52:49.462Z,78.15
2022-12-27T06:53:39.151Z,78.11
2022-12-27T06:54:26.104Z,77.99
2022-12-27T06:55:13.001Z,77.56
2022-12-27T06:56:07.773Z,77.31
2022-12-27T06:56:56.289Z,75.93
2022-12-27T06:57:43.131Z,75.86
2022-12-27T06:58:29.959Z,75.24
2022-12-27T06:59:16.862Z,75.76
2022-12-27T07:00:05.031Z,74.69
2022-12-27T07:00:51.899Z,74.36
2022-12-27T07:01:38.922Z,73.99
2022-12-27T07:02:25.977Z,73.99
2022-12-27T07:03:12.936Z,74.32
2022-12-27T07:04:00.973Z,74.49
2022-12-27T07:04:47.879Z,72.29
2022-12-27T07:05:38.497Z,72.56
2022-12-27T07:06:26.254Z,72.02
2022-12-27T07:07:15.771Z,72.57
2022-12-27T07:08:03.094Z,72.10
2022-12-27T07:08:50.727Z,69.42
2022-12-27T07:09:37.574Z,68.64
2022-12-27T07:10:24.461Z,68.61
2022-12-27T07:11:12.746Z,67.60
2022-12-27T07:11:59.600Z,66.64
2022-12-27T07:12:46.533Z,66.55
2022-12-27T07:13:38.891Z,65.87
2022-12-27T07:14:25.773Z,66.09
2022-12-27T07:15:12.647Z,65.80
2022-12-27T07:15:59.483Z,65.74
2022-12-27T07:16:46.373Z,65.70
2022-12-27T07:17:35.442Z,65.75
2022-12-27T07:18:22.382Z,66.47
2022-12-27T07:19:10.185Z,64.09
2022-12-27T07:19:57.072Z,63.59
2022-12-27T07:20:43.944Z,63.62
2022-12-27T07:21:30.912Z,62.90
2022-12-27T07:22:17.816Z,63.90
2022-12-27T07:23:04.736Z,63.35
2022-12-27T07:23:52.024Z,64.09
2022-12-27T07:24:38.903Z,63.17
2022-12-27T07:25:25.882Z,63.41
2022-12-27T07:26:17.376Z,63.19
2022-12-27T07:27:05.402Z,62.96
2022-12-27T07:27:52.282Z,64.13
2022-12-27T07:28:39.758Z,63.45
2022-12-27T07:29:27.826Z,63.96
2022-12-27T07:30:14.716Z,63.99
2022-12-27T07:31:08.227Z,63.98
2022-12-27T07:31:55.154Z,64.45
2022-12-27T07:32:42.041Z,62.81
2022-12-27T07:33:28.922Z,63.28
2022-12-27T07:34:15.844Z,62.79
2022-12-27T07:35:02.830Z,62.99
2022-12-27T07:35:49.679Z,63.64
2022-12-27T07:36:38.975Z,63.46
2022-12-27T07:37:25.845Z,62.56
2022-12-27T07:38:12.822Z,63.50
2022-12-27T07:38:59.783Z,63.18
2022-12-27T07:39:46.729Z,62.81
2022-12-27T07:40:37.059Z,63.07
2022-12-27T07:41:24.910Z,63.00
2022-12-27T07:42:11.846Z,62.06
2022-12-27T07:42:58.712Z,61.83
2022-12-27T07:43:45.872Z,62.95
2022-12-27T07:44:32.748Z,62.19
2022-12-27T07:45:19.617Z,63.54
2022-12-27T07:46:11.209Z,63.43
2022-12-27T07:46:58.076Z,62.56
2022-12-27T07:47:44.911Z,63.40
2022-12-27T07:48:31.981Z,62.40
2022-12-27T07:49:18.915Z,62.73
2022-12-27T07:50:06.221Z,62.51
2022-12-27T07:50:56.325Z,62.65
2022-12-27T07:51:43.311Z,61.80
2022-12-27T07:52:30.170Z,61.99
2022-12-27T07:53:16.991Z,60.54
2022-12-27T07:54:04.042Z,60.66
2022-12-27T07:54:50.900Z,60.37
2022-12-27T07:55:37.793Z,60.42
2022-12-27T07:56:27.323Z,59.15
2022-12-27T07:57:14.290Z,59.76
2022-12-27T07:58:01.172Z,59.66
2022-12-27T07:58:49.244Z,59.82
2022-12-27T07:59:36.092Z,60.40
2022-12-27T08:00:23.135Z,59.91
2022-12-27T08:01:11.773Z,59.52
2022-12-27T08:02:05.827Z,58.75
2022-12-27T08:02:52.865Z,58.97
2022-12-27T08:03:40.284Z,59.73
2022-12-27T08:04:27.148Z,60.40
2022-12-27T08:05:14.002Z,60.35
2022-12-27T08:06:01.438Z,60.54
2022-12-27T08:06:48.572Z,61.07
2022-12-27T08:07:35.996Z,59.68
2022-12-27T08:08:25.293Z,60.87
2022-12-27T08:09:13.692Z,60.90
2022-12-27T08:10:00.696Z,60.23
2022-12-27T08:10:47.644Z,60.70
2022-12-27T08:11:34.547Z,58.58
2022-12-27T08:12:21.393Z,59.48
2022-12-27T08:13:08.390Z,58.60
2022-12-27T08:13:55.340Z,58.98
2022-12-27T08:14:42.511Z,59.25
2022-12-27T08:15:29.342Z,59.96
2022-12-27T08:16:21.498Z,60.40
2022-12-27T08:17:24.428Z,59.47
2022-12-27T08:18:11.380Z,59.32
2022-12-27T08:19:01.947Z,59.06
2022-12-27T08:19:52.076Z,59.34
2022-12-27T08:20:38.931Z,59.74
2022-12-27T08:21:25.804Z,60.09
2022-12-27T08:22:12.996Z,60.19
2022-12-27T08:23:00.001Z,60.10
2022-12-27T08:23:46.908Z,61.21
2022-12-27T08:24:33.881Z,61.14
2022-12-27T08:25:21.770Z,60.76
2022-12-27T08:26:09.111Z,61.08
2022-12-27T08:26:55.912Z,61.62
2022-12-27T08:27:42.741Z,61.91
2022-12-27T08:28:31.731Z,62.51
2022-12-27T08:29:18.603Z,62.21
2022-12-27T08:30:06.033Z,62.44
2022-12-27T08:30:53.036Z,62.92
2022-12-27T08:31:39.883Z,63.06
2022-12-27T08:32:26.757Z,63.22
2022-12-27T08:33:15.321Z,63.46
2022-12-27T08:34:03.475Z,64.38
2022-12-27T08:34:50.434Z,64.02
2022-12-27T08:35:52.649Z,64.69
2022-12-27T08:36:56.391Z,64.08
2022-12-27T08:37:43.639Z,64.07
2022-12-27T08:38:30.503Z,64.33
2022-12-27T08:39:17.523Z,64.27
2022-12-27T08:40:04.768Z,64.54
2022-12-27T08:40:51.676Z,64.29
2022-12-27T08:41:39.096Z,63.89
2022-12-27T08:42:26.202Z,64.20
2022-12-27T08:43:13.393Z,64.92
2022-12-27T08:44:00.280Z,64.40
2022-12-27T08:44:47.075Z,65.07
2022-12-27T08:45:33.959Z,65.05
2022-12-27T08:46:20.894Z,65.03
2022-12-27T08:47:07.956Z,64.36
2022-12-27T08:47:59.816Z,65.07
2022-12-27T08:48:50.267Z,64.68
2022-12-27T08:49:37.118Z,64.32
2022-12-27T08:50:23.995Z,64.44
2022-12-27T08:51:14.577Z,63.84
2022-12-27T08:52:04.008Z,63.38
2022-12-27T08:52:50.862Z,63.22
2022-12-27T08:53:37.719Z,63.00
2022-12-27T08:54:24.585Z,63.58
2022-12-27T08:55:11.502Z,62.95
2022-12-27T08:55:58.391Z,62.90
2022-12-27T08:56:45.289Z,62.54
2022-12-27T08:57:32.100Z,62.80
2022-12-27T08:58:19.041Z,63.38
2022-12-27T08:59:05.874Z,63.48
2022-12-27T08:59:52.759Z,62.57
2022-12-27T09:00:39.660Z,63.20
2022-12-27T09:01:26.603Z,62.44
2022-12-27T09:02:14.701Z,62.39
2022-12-27T09:03:01.698Z,62.33
2022-12-27T09:03:48.599Z,61.65
2022-12-27T09:04:35.542Z,60.07
2022-12-27T09:05:23.019Z,61.41
2022-12-27T09:06:12.389Z,60.65
2022-12-27T09:06:59.340Z,59.80
2022-12-27T09:07:47.331Z,58.33
2022-12-27T09:08:34.190Z,58.54
2022-12-27T09:09:21.356Z,58.13
2022-12-27T09:10:08.762Z,59.22
2022-12-27T09:10:55.694Z,58.86
2022-12-27T09:11:42.518Z,58.12
2022-12-27T09:12:29.389Z,58.60
2022-12-27T09:13:16.242Z,57.13
2022-12-27T09:14:04.752Z,57.32
2022-12-27T09:14:51.597Z,57.59
2022-12-27T09:15:38.818Z,57.65
2022-12-27T09:16:29.240Z,56.79
2022-12-27T09:17:16.128Z,56.98
2022-12-27T09:18:03.373Z,57.14
2022-12-27T09:18:52.857Z,57.88
2022-12-27T09:19:40.012Z,57.42
2022-12-27T09:20:26.863Z,56.91
2022-12-27T09:21:14.859Z,57.18
2022-12-27T09:22:06.844Z,58.64
2022-12-27T09:22:53.757Z,57.28
2022-12-27T09:23:41.720Z,56.89
2022-12-27T09:24:28.650Z,56.47
2022-12-27T09:25:15.733Z,56.27
2022-12-27T09:26:13.938Z,56.65
2022-12-27T09:27:00.924Z,56.24
2022-12-27T09:27:47.799Z,56.59
2022-12-27T09:28:35.609Z,56.80
2022-12-27T09:29:22.550Z,56.37
2022-12-27T09:30:09.930Z,56.00
2022-12-27T09:30:57.205Z,56.20
2022-12-27T09:31:44.173Z,56.49
2022-12-27T09:32:31.254Z,56.63
2022-12-27T09:33:18.146Z,56.64
2022-12-27T09:34:05.123Z,56.30
2022-12-27T09:34:52.177Z,56.38
2022-12-27T09:35:39.837Z,56.40
2022-12-27T09:36:29.296Z,57.41
2022-12-27T09:37:16.207Z,57.33
2022-12-27T09:38:03.125Z,57.92
2022-12-27T09:38:52.971Z,56.76
2022-12-27T09:39:40.005Z,57.09
2022-12-27T09:40:26.990Z,56.73
2022-12-27T09:42:11.436Z,56.58
2022-12-27T09:43:00.794Z,56.10
2022-12-27T09:44:02.713Z,57.18
2022-12-27T09:44:53.342Z,56.73
2022-12-27T09:45:47.666Z,56.18
2022-12-27T09:46:42.047Z,56.60
2022-12-27T09:47:36.900Z,56.71
2022-12-27T09:48:37.677Z,57.36
2022-12-27T09:49:31.790Z,57.23
2022-12-27T09:50:44.556Z,57.88
2022-12-27T09:51:46.517Z,57.91
2022-12-27T09:52:36.707Z,58.56
2022-12-27T09:53:46.879Z,59.05
2022-12-27T09:54:44.645Z,59.56
2022-12-27T09:55:44.569Z,60.47
2022-12-27T09:56:54.534Z,60.24
2022-12-27T09:57:43.954Z,58.99
2022-12-27T09:58:43.184Z,59.27
2022-12-27T09:59:40.020Z,59.31
2022-12-27T10:00:34.450Z,59.82
2022-12-27T10:01:28.620Z,59.10
2022-12-27T10:02:25.029Z,59.03
2022-12-27T10:03:15.554Z,59.50
2022-12-27T10:04:02.995Z,60.11
2022-12-27T10:06:12.038Z,59.40
2022-12-27T10:07:29.346Z,59.08
2022-12-27T10:08:35.039Z,58.23
2022-12-27T10:09:25.662Z,57.92
2022-12-27T10:10:15.330Z,57.65
2022-12-27T10:11:05.196Z,58.04
2022-12-27T10:12:04.270Z,58.34
2022-12-27T10:13:32.680Z,57.65
2022-12-27T10:14:41.547Z,57.56
2022-12-27T10:15:37.504Z,56.54
2022-12-27T10:16:30.614Z,56.95
2022-12-27T10:17:23.459Z,57.29
2022-12-27T10:18:25.397Z,56.78
2022-12-27T10:19:46.497Z,56.94
2022-12-27T10:20:45.458Z,56.92
2022-12-27T10:21:36.084Z,56.67
2022-12-27T10:22:46.603Z,56.17
2022-12-27T10:23:35.406Z,56.75
2022-12-27T10:24:36.448Z,56.99
2022-12-27T10:25:25.059Z,55.97
2022-12-27T10:26:18.358Z,55.48
2022-12-27T10:27:14.081Z,56.07
2022-12-27T10:28:05.768Z,55.40
2022-12-27T10:28:59.820Z,54.96
2022-12-27T10:29:46.817Z,55.51
2022-12-27T10:30:35.482Z,55.30
2022-12-27T10:31:23.715Z,55.09
2022-12-27T10:32:13.402Z,55.32
2022-12-27T10:33:00.376Z,54.55
2022-12-27T10:33:48.407Z,54.72
2022-12-27T10:34:35.436Z,55.20
2022-12-27T10:35:22.852Z,54.74
2022-12-27T10:36:13.433Z,54.84
2022-12-27T10:37:00.192Z,53.96
2022-12-27T10:37:49.192Z,54.01
2022-12-27T10:38:36.428Z,54.56
2022-12-27T10:39:28.926Z,54.09
2022-12-27T10:40:20.142Z,54.91
2022-12-27T10:41:19.083Z,54.29
2022-12-27T10:42:43.846Z,54.76
2022-12-27T10:43:35.756Z,54.28
2022-12-27T10:44:23.405Z,53.61
2022-12-27T10:45:25.305Z,54.26
2022-12-27T10:46:32.751Z,54.25
2022-12-27T10:47:26.215Z,54.79
2022-12-27T10:48:47.251Z,54.55
2022-12-27T10:49:36.798Z,54.20
2022-12-27T10:50:26.191Z,54.51
2022-12-27T10:51:13.937Z,54.41
2022-12-27T10:52:09.404Z,54.75
2022-12-27T10:52:57.904Z,54.54
2022-12-27T10:53:47.845Z,54.10
2022-12-27T10:54:35.363Z,53.72
2022-12-27T10:55:38.173Z,54.68
2022-12-27T10:56:44.495Z,53.89
2022-12-27T10:57:33.924Z,54.62
2022-12-27T10:58:26.667Z,54.31
2022-12-27T10:59:29.236Z,55.08
2022-12-27T11:00:19.919Z,55.05
2022-12-27T11:01:06.925Z,54.45
2022-12-27T11:02:18.581Z,54.69
2022-12-27T11:03:05.714Z,54.49
2022-12-27T11:03:53.518Z,53.95
2022-12-27T11:04:56.300Z,54.22
2022-12-27T11:05:43.203Z,54.25
2022-12-27T11:06:30.095Z,54.05
2022-12-27T11:07:19.000Z,53.55
2022-12-27T11:08:21.784Z,54.80
2022-12-27T11:09:28.929Z,54.24
2022-12-27T11:10:19.287Z,54.21